createdAt,value
2022-10-05T00:01:33.373Z,6.06
2022-10-05T00:04:15.355Z,5.67
2022-10-05T00:06:44.852Z,5.78
2022-10-05T00:09:21.611Z,5.77
2022-10-05T00:11:49.412Z,5.66
2022-10-05T00:14:22.345Z,5.49
2022-10-05T00:16:49.444Z,5.08
2022-10-05T00:19:26.380Z,5.26
2022-10-05T00:21:52.993Z,5.13
2022-10-05T00:24:20.541Z,4.97
2022-10-05T00:26:47.475Z,4.94
2022-10-05T00:29:22.530Z,4.93
2022-10-05T00:31:50.168Z,4.87
2022-10-05T00:34:17.843Z,4.86
2022-10-05T00:36:45.623Z,4.60
2022-10-05T00:39:12.792Z,5.05
2022-10-05T00:41:57.933Z,4.99
2022-10-05T00:44:33.718Z,5.80
2022-10-05T00:47:21.545Z,5.64
2022-10-05T00:50:14.594Z,5.48
2022-10-05T00:53:12.391Z,5.25
2022-10-05T00:55:57.366Z,5.36
2022-10-05T00:58:53.181Z,5.49
2022-10-05T01:01:50.999Z,5.57
2022-10-05T01:04:47.024Z,5.17
2022-10-05T01:07:23.603Z,5.38
2022-10-05T01:09:58.096Z,5.27
2022-10-05T01:12:42.887Z,5.19
2022-10-05T01:15:21.859Z,5.16
2022-10-05T01:17:48.398Z,5.29
2022-10-05T01:20:31.003Z,5.14
2022-10-05T01:23:16.369Z,5.02
2022-10-05T01:26:19.869Z,4.98
2022-10-05T01:28:49.423Z,5.19
2022-10-05T01:31:25.086Z,5.27
2022-10-05T01:33:57.803Z,5.25
2022-10-05T01:36:30.478Z,5.33
2022-10-05T01:39:11.675Z,5.06
2022-10-05T01:41:52.385Z,4.74
2022-10-05T01:44:33.319Z,4.95
2022-10-05T01:47:07.287Z,4.85
2022-10-05T01:49:33.859Z,4.83
2022-10-05T01:52:19.213Z,4.57
2022-10-05T01:55:31.253Z,4.41
2022-10-05T01:58:23.323Z,4.73
2022-10-05T02:01:00.558Z,4.55
2022-10-05T02:03:42.685Z,4.37
2022-10-05T02:06:35.171Z,4.23
2022-10-05T02:09:06.395Z,4.23
2022-10-05T02:11:34.245Z,4.04
2022-10-05T02:14:11.558Z,4.17
2022-10-05T02:16:47.636Z,4.02
2022-10-05T02:19:22.011Z,3.99
2022-10-05T02:21:54.548Z,3.91
2022-10-05T02:24:31.200Z,3.91
2022-10-05T02:26:59.088Z,3.93
2022-10-05T02:29:31.072Z,3.84
2022-10-05T02:32:03.036Z,3.76
2022-10-05T02:34:41.566Z,4.06
2022-10-05T02:37:32.640Z,3.93
2022-10-05T02:40:08.496Z,3.83
2022-10-05T02:42:46.188Z,3.68
2022-10-05T02:45:33.615Z,3.64
2022-10-05T02:48:07.999Z,3.79
2022-10-05T02:50:46.759Z,3.76
2022-10-05T02:53:22.248Z,3.75
2022-10-05T02:55:53.656Z,3.71
2022-10-05T02:58:24.925Z,3.62
2022-10-05T03:01:03.348Z,3.42
2022-10-05T03:03:41.897Z,3.53
2022-10-05T03:06:23.192Z,3.62
2022-10-05T03:09:04.121Z,3.82
2022-10-05T03:12:09.812Z,3.69
2022-10-05T03:15:02.654Z,3.46
2022-10-05T03:17:42.139Z,3.52
2022-10-05T03:20:08.727Z,3.68
2022-10-05T03:22:53.476Z,3.77
2022-10-05T03:25:35.166Z,3.77
2022-10-05T03:28:20.519Z,3.71
2022-10-05T03:30:59.142Z,3.65
2022-10-05T03:33:40.751Z,3.44
2022-10-05T03:37:06.038Z,3.50
2022-10-05T03:39:51.529Z,3.44
2022-10-05T03:42:33.201Z,3.39
2022-10-05T03:45:16.247Z,3.63
2022-10-05T03:47:49.139Z,3.58
2022-10-05T03:50:18.818Z,3.51
2022-10-05T03:52:56.037Z,3.28
2022-10-05T03:55:43.744Z,3.31
2022-10-05T03:58:25.979Z,3.10
2022-10-05T04:00:57.800Z,3.15
2022-10-05T04:03:24.758Z,3.15
2022-10-05T04:05:59.304Z,3.09
2022-10-05T04:08:38.244Z,3.03
2022-10-05T04:11:11.641Z,2.86
2022-10-05T04:13:54.801Z,2.81
2022-10-05T04:16:28.339Z,2.76
2022-10-05T04:19:02.578Z,2.89
2022-10-05T04:21:59.380Z,2.87
2022-10-05T04:24:47.414Z,2.78
2022-10-05T04:27:30.954Z,2.80
2022-10-05T04:30:05.253Z,2.80
2022-10-05T04:32:43.907Z,2.79
2022-10-05T04:35:34.806Z,2.76
2022-10-05T04:38:25.011Z,2.66
2022-10-05T04:41:20.698Z,2.74
2022-10-05T04:44:06.068Z,2.75
2022-10-05T04:47:18.191Z,2.64
2022-10-05T04:49:56.199Z,2.76
2022-10-05T04:52:48.239Z,2.82
2022-10-05T04:55:33.466Z,2.94
2022-10-05T04:58:10.750Z,2.91
2022-10-05T05:01:07.889Z,2.76
2022-10-05T05:04:08.139Z,2.78
2022-10-05T05:06:53.575Z,2.81
2022-10-05T05:09:39.753Z,2.87
2022-10-05T05:12:41.841Z,2.94
2022-10-05T05:15:26.974Z,2.97
2022-10-05T05:18:19.733Z,2.99
2022-10-05T05:21:17.220Z,3.05
2022-10-05T05:24:11.565Z,3.08
2022-10-05T05:26:57.059Z,3.22
2022-10-05T05:30:01.215Z,3.41
2022-10-05T05:32:58.605Z,3.34
2022-10-05T05:35:38.776Z,3.42
2022-10-05T05:38:23.612Z,3.50
2022-10-05T05:41:13.273Z,3.65
2022-10-05T05:43:48.753Z,3.68
2022-10-05T05:46:30.104Z,3.89
2022-10-05T05:49:39.759Z,4.08
2022-10-05T05:52:22.437Z,3.95
2022-10-05T05:54:58.317Z,4.27
2022-10-05T05:57:33.229Z,4.63
2022-10-05T06:00:26.447Z,4.83
2022-10-05T06:03:03.642Z,5.05
2022-10-05T06:05:40.700Z,5.30
2022-10-05T06:08:13.568Z,5.43
2022-10-05T06:10:46.956Z,5.85
2022-10-05T06:13:23.309Z,5.95
2022-10-05T06:15:57.813Z,6.41
2022-10-05T06:18:25.621Z,6.62
2022-10-05T06:20:56.050Z,6.80
2022-10-05T06:23:34.180Z,6.91
2022-10-05T06:26:15.934Z,7.20
2022-10-05T06:28:43.099Z,7.34
2022-10-05T06:31:29.748Z,7.65
2022-10-05T06:34:28.063Z,8.03
2022-10-05T06:37:05.845Z,8.20
2022-10-05T06:40:07.627Z,8.38
2022-10-05T06:42:37.075Z,8.58
2022-10-05T06:45:22.093Z,8.77
2022-10-05T06:48:04.312Z,8.90
2022-10-05T06:50:58.233Z,9.11
2022-10-05T06:53:44.544Z,9.38
2022-10-05T06:56:21.217Z,9.58
2022-10-05T06:59:16.722Z,9.87
2022-10-05T07:02:24.968Z,10.10
2022-10-05T07:05:12.641Z,10.36
2022-10-05T07:08:07.045Z,10.39
2022-10-05T07:10:43.811Z,10.54
2022-10-05T07:13:10.440Z,10.79
2022-10-05T07:16:12.418Z,10.87
2022-10-05T07:18:51.089Z,11.14
2022-10-05T07:21:39.516Z,11.19
2022-10-05T07:24:25.034Z,11.57
2022-10-05T07:27:14.880Z,11.67
2022-10-05T07:29:44.362Z,11.74
2022-10-05T07:32:29.737Z,11.98
2022-10-05T07:34:59.344Z,12.09
2022-10-05T07:37:57.995Z,12.31
2022-10-05T07:40:29.372Z,12.40
2022-10-05T07:43:03.945Z,12.47
2022-10-05T07:45:44.702Z,12.52
2022-10-05T07:52:51.629Z,13.04
2022-10-05T07:55:22.042Z,13.01
2022-10-05T07:58:02.034Z,13.12
2022-10-05T08:00:46.441Z,13.26
2022-10-05T08:03:38.442Z,13.57
2022-10-05T08:06:10.745Z,13.63
2022-10-05T08:08:53.994Z,13.63
2022-10-05T08:11:55.394Z,13.85
2022-10-05T08:14:38.440Z,13.94
2022-10-05T08:17:21.695Z,14.10
2022-10-05T08:20:06.345Z,14.27
2022-10-05T08:22:47.126Z,14.36
2022-10-05T08:25:26.727Z,14.59
2022-10-05T08:28:03.524Z,14.70
2022-10-05T08:30:35.775Z,14.69
2022-10-05T08:33:14.855Z,14.92
2022-10-05T08:35:44.853Z,14.90
2022-10-05T08:38:23.568Z,15.12
2022-10-05T08:41:19.948Z,15.34
2022-10-05T08:44:05.284Z,15.22
2022-10-05T08:46:56.302Z,15.34
2022-10-05T08:49:42.098Z,15.10
2022-10-05T08:52:30.437Z,15.26
2022-10-05T08:55:36.801Z,15.28
2022-10-05T08:58:27.631Z,15.20
2022-10-05T09:01:22.046Z,15.40
2022-10-05T09:03:57.563Z,15.26
2022-10-05T09:06:29.469Z,15.44
2022-10-05T09:09:09.760Z,15.68
2022-10-05T09:11:46.115Z,15.93
2022-10-05T09:14:34.540Z,16.02
2022-10-05T09:17:25.934Z,16.09
2022-10-05T09:20:32.913Z,16.15
2022-10-05T09:23:35.461Z,16.47
2022-10-05T09:26:02.241Z,16.40
2022-10-05T09:29:02.999Z,16.45
2022-10-05T09:31:57.826Z,16.57
2022-10-05T09:34:47.189Z,16.50
2022-10-05T09:37:21.779Z,16.79
2022-10-05T09:39:57.798Z,16.59
2022-10-05T09:42:29.816Z,16.73
2022-10-05T09:45:21.383Z,16.77
2022-10-05T09:48:00.417Z,17.01
2022-10-05T09:50:52.531Z,17.13
2022-10-05T09:53:41.179Z,17.23
2022-10-05T09:56:26.267Z,17.24
2022-10-05T09:59:23.783Z,17.35
2022-10-05T10:02:19.929Z,17.42
2022-10-05T10:05:05.924Z,17.67
2022-10-05T10:07:44.682Z,17.74
2022-10-05T10:10:29.327Z,17.86
2022-10-05T10:12:58.544Z,17.58
2022-10-05T10:15:33.122Z,17.61
2022-10-05T10:18:24.659Z,17.62
2022-10-05T10:21:30.377Z,18.00
2022-10-05T10:24:27.448Z,17.82
2022-10-05T10:27:00.036Z,18.39
2022-10-05T10:29:54.793Z,18.55
2022-10-05T10:32:56.970Z,18.54
2022-10-05T10:35:50.165Z,18.10
2022-10-05T10:38:31.269Z,17.93
2022-10-05T10:41:22.647Z,18.11
2022-10-05T10:44:12.287Z,18.01
2022-10-05T10:46:45.419Z,18.40
2022-10-05T10:49:33.943Z,18.44
2022-10-05T10:52:24.891Z,18.36
2022-10-05T10:54:52.839Z,18.11
2022-10-05T10:57:54.076Z,18.44
2022-10-05T11:00:30.933Z,18.87
2022-10-05T11:03:24.961Z,19.01
2022-10-05T11:05:51.576Z,18.74
2022-10-05T11:08:18.344Z,19.00
2022-10-05T11:11:03.795Z,18.55
2022-10-05T11:14:02.949Z,18.84
2022-10-05T11:17:07.556Z,18.85
2022-10-05T11:20:28.656Z,18.81
2022-10-05T11:23:18.488Z,18.82
2022-10-05T11:26:12.830Z,18.94
2022-10-05T11:29:07.001Z,18.09
2022-10-05T11:32:04.599Z,17.70
2022-10-05T11:34:53.193Z,17.66
2022-10-05T11:37:22.762Z,18.16
2022-10-05T11:40:34.053Z,18.16
2022-10-05T11:43:42.314Z,18.56
2022-10-05T11:46:36.285Z,18.88
2022-10-05T11:49:21.616Z,19.03
2022-10-05T11:52:23.280Z,19.01
2022-10-05T11:55:14.979Z,18.59
2022-10-05T11:57:58.395Z,18.35
2022-10-05T12:00:34.587Z,18.34
2022-10-05T12:03:30.468Z,18.25
2022-10-05T12:06:27.417Z,18.37
2022-10-05T12:09:12.177Z,18.42
2022-10-05T12:12:27.015Z,18.57
2022-10-05T12:15:12.041Z,18.62
2022-10-05T12:18:01.283Z,18.79
2022-10-05T12:20:36.658Z,18.67
2022-10-05T12:23:14.688Z,19.06
2022-10-05T12:26:11.161Z,18.88
2022-10-05T12:28:52.256Z,18.97
2022-10-05T12:31:51.288Z,18.97
2022-10-05T12:34:26.853Z,19.22
2022-10-05T12:37:05.311Z,19.10
2022-10-05T12:39:41.138Z,18.83
2022-10-05T12:42:39.412Z,18.93
2022-10-05T12:45:26.513Z,18.65
2022-10-05T12:48:27.126Z,18.57
2022-10-05T12:50:59.863Z,18.42
2022-10-05T12:53:29.341Z,18.46
2022-10-05T12:55:55.925Z,18.53
2022-10-05T12:58:41.144Z,18.39
2022-10-05T13:01:20.961Z,18.80
2022-10-05T13:04:18.529Z,18.73
2022-10-05T13:07:04.789Z,18.91
2022-10-05T13:09:34.372Z,18.89
2022-10-05T13:12:11.989Z,18.90
2022-10-05T13:14:58.361Z,19.05
2022-10-05T13:17:45.187Z,18.88
2022-10-05T13:20:24.100Z,19.13
2022-10-05T13:23:08.034Z,18.67
2022-10-05T13:25:51.705Z,18.29
2022-10-05T13:28:49.560Z,18.10
2022-10-05T13:31:23.882Z,18.13
2022-10-05T13:33:53.597Z,18.44
2022-10-05T13:36:32.187Z,18.48
2022-10-05T13:39:03.542Z,18.33
2022-10-05T13:41:50.243Z,18.48
2022-10-05T13:44:38.247Z,18.42
2022-10-05T13:47:28.575Z,18.41
2022-10-05T13:50:23.417Z,18.17
2022-10-05T13:53:07.933Z,18.01
2022-10-05T13:56:03.479Z,18.17
2022-10-05T13:58:51.925Z,17.83
2022-10-05T14:01:41.707Z,17.87
2022-10-05T14:04:21.176Z,17.81
2022-10-05T14:06:49.282Z,17.50
2022-10-05T14:09:30.750Z,17.52
2022-10-05T14:12:03.281Z,17.61
2022-10-05T14:14:32.329Z,17.36
2022-10-05T14:17:05.612Z,17.20
2022-10-05T14:19:34.307Z,17.25
2022-10-05T14:22:03.322Z,17.14
2022-10-05T14:24:50.232Z,17.04
2022-10-05T14:27:19.964Z,16.95
2022-10-05T14:29:52.330Z,16.94
2022-10-05T14:32:23.674Z,16.87
2022-10-05T14:35:13.040Z,16.82
2022-10-05T14:38:00.200Z,16.66
2022-10-05T14:40:36.061Z,16.63
2022-10-05T14:43:19.589Z,16.53
2022-10-05T14:46:23.243Z,16.55
2022-10-05T14:49:17.294Z,16.60
2022-10-05T14:51:44.163Z,16.41
2022-10-05T14:54:46.959Z,16.51
2022-10-05T14:57:39.296Z,16.72
2022-10-05T15:00:17.020Z,16.82
2022-10-05T15:03:27.358Z,16.70
2022-10-05T15:05:58.900Z,16.65
2022-10-05T15:08:49.555Z,16.84
2022-10-05T15:11:42.598Z,16.55
2022-10-05T15:14:20.371Z,16.56
2022-10-05T15:16:51.948Z,16.47
2022-10-05T15:20:00.141Z,16.41
2022-10-05T15:22:31.844Z,16.56
2022-10-05T15:25:10.818Z,16.45
2022-10-05T15:27:58.980Z,16.22
2022-10-05T15:30:25.897Z,16.14
2022-10-05T15:33:01.503Z,16.01
2022-10-05T15:35:31.145Z,15.87
2022-10-05T15:38:20.770Z,15.69
2022-10-05T15:40:47.602Z,15.48
2022-10-05T15:43:19.068Z,15.30
2022-10-05T15:46:08.676Z,14.99
2022-10-05T15:48:53.961Z,14.91
2022-10-05T15:51:45.458Z,14.64
2022-10-05T15:54:42.346Z,14.30
2022-10-05T15:57:23.679Z,14.11
2022-10-05T16:00:07.761Z,14.00
2022-10-05T16:02:41.935Z,13.84
2022-10-05T16:05:11.404Z,13.72
2022-10-05T16:08:06.353Z,13.15
2022-10-05T16:10:37.284Z,13.17
2022-10-05T16:13:16.388Z,13.09
2022-10-05T16:15:50.099Z,12.97
2022-10-05T16:18:22.911Z,13.02
2022-10-05T16:20:52.194Z,12.93
2022-10-05T16:23:33.707Z,12.86
2022-10-05T16:26:21.742Z,12.78
2022-10-05T16:28:58.247Z,12.55
2022-10-05T16:31:37.505Z,12.50
2022-10-05T16:34:36.605Z,12.50
2022-10-05T16:37:09.859Z,12.36
2022-10-05T16:40:00.244Z,12.15
2022-10-05T16:42:47.948Z,12.17
2022-10-05T16:45:27.924Z,11.99
2022-10-05T16:48:00.242Z,11.96
2022-10-05T16:50:43.102Z,11.94
2022-10-05T16:53:15.791Z,11.96
2022-10-05T16:55:51.843Z,11.89
2022-10-05T16:58:35.345Z,11.97
2022-10-05T17:01:27.032Z,12.03
2022-10-05T17:04:14.726Z,12.13
2022-10-05T17:06:56.656Z,12.16
2022-10-05T17:09:43.543Z,12.17
2022-10-05T17:12:20.698Z,11.99
2022-10-05T17:15:00.368Z,12.07
2022-10-05T17:17:38.424Z,12.01
2022-10-05T17:20:23.686Z,12.00
2022-10-05T17:23:02.164Z,11.96
2022-10-05T17:25:45.823Z,11.71
2022-10-05T17:28:18.715Z,11.68
2022-10-05T17:30:53.972Z,11.56
2022-10-05T17:33:27.735Z,11.45
2022-10-05T17:36:04.788Z,11.35
2022-10-05T17:38:31.468Z,11.29
2022-10-05T17:41:05.480Z,11.25
2022-10-05T17:43:33.888Z,11.00
2022-10-05T17:46:06.759Z,11.10
2022-10-05T17:48:36.771Z,11.09
2022-10-05T17:51:26.101Z,11.02
2022-10-05T17:54:11.172Z,10.92
2022-10-05T17:56:54.319Z,10.97
2022-10-05T17:59:44.693Z,10.84
2022-10-05T18:02:38.487Z,10.81
2022-10-05T18:05:16.250Z,10.91
2022-10-05T18:07:48.192Z,11.03
2022-10-05T18:10:30.674Z,10.85
2022-10-05T18:13:00.353Z,11.05
2022-10-05T18:15:26.923Z,11.04
2022-10-05T18:17:59.612Z,11.02
2022-10-05T18:20:29.620Z,11.03
2022-10-05T18:23:09.566Z,11.15
2022-10-05T18:26:18.151Z,11.21
2022-10-05T18:28:56.280Z,11.34
2022-10-05T18:31:38.224Z,11.31
2022-10-05T18:34:30.828Z,11.17
2022-10-05T18:37:21.861Z,10.98
2022-10-05T18:39:58.276Z,10.86
2022-10-05T18:42:40.038Z,10.67
2022-10-05T18:45:19.144Z,10.50
2022-10-05T18:47:59.421Z,10.07
2022-10-05T18:50:29.564Z,10.13
2022-10-05T18:53:26.740Z,9.99
2022-10-05T18:56:12.420Z,9.77
2022-10-05T18:58:52.074Z,9.81
2022-10-05T19:01:44.160Z,9.80
2022-10-05T19:04:32.592Z,9.59
2022-10-05T19:07:08.415Z,9.69
2022-10-05T19:09:38.788Z,9.64
2022-10-05T19:12:31.169Z,9.55
2022-10-05T19:15:27.187Z,9.57
2022-10-05T19:18:12.388Z,9.74
2022-10-05T19:20:39.955Z,9.84
2022-10-05T19:23:18.701Z,9.82
2022-10-05T19:25:54.813Z,9.77
2022-10-05T19:28:31.346Z,9.75
2022-10-05T19:31:07.340Z,9.81
2022-10-05T19:34:13.463Z,9.90
2022-10-05T19:36:46.341Z,9.97
2022-10-05T19:39:21.233Z,9.76
2022-10-05T19:42:26.348Z,9.81
2022-10-05T19:45:12.008Z,9.81
2022-10-05T19:47:53.495Z,9.98
2022-10-05T19:50:26.572Z,10.07
2022-10-05T19:53:09.321Z,9.87
2022-10-05T19:55:41.567Z,9.53
2022-10-05T19:58:29.155Z,9.50
2022-10-05T20:01:01.375Z,9.48
2022-10-05T20:03:32.950Z,9.47
2022-10-05T20:06:10.550Z,9.25
2022-10-05T20:08:43.835Z,9.24
2022-10-05T20:11:27.264Z,9.25
2022-10-05T20:13:53.983Z,9.33
2022-10-05T20:16:47.829Z,9.39
2022-10-05T20:19:43.205Z,9.23
2022-10-05T20:22:33.508Z,9.18
2022-10-05T20:25:20.334Z,9.18
2022-10-05T20:27:56.821Z,8.96
2022-10-05T20:30:28.796Z,9.27
2022-10-05T20:32:58.292Z,9.09
2022-10-05T20:35:27.922Z,8.78
2022-10-05T20:37:59.465Z,8.84
2022-10-05T20:40:29.141Z,9.14
2022-10-05T20:42:57.020Z,9.45
2022-10-05T20:45:23.885Z,9.40
2022-10-05T20:47:51.699Z,8.98
2022-10-05T20:50:18.553Z,9.38
2022-10-05T20:52:45.271Z,9.22
2022-10-05T20:55:12.613Z,8.85
2022-10-05T20:57:42.228Z,9.19
2022-10-05T21:00:10.112Z,9.48
2022-10-05T21:02:37.243Z,8.89
2022-10-05T21:05:04.716Z,9.28
2022-10-05T21:07:34.102Z,9.38
2022-10-05T21:10:06.726Z,9.15
2022-10-05T21:12:34.739Z,9.07
2022-10-05T21:15:04.673Z,9.35
2022-10-05T21:17:31.572Z,9.43
2022-10-05T21:19:58.293Z,9.31
2022-10-05T21:22:25.109Z,9.23
2022-10-05T21:24:51.704Z,9.28
2022-10-05T21:27:18.404Z,9.36
2022-10-05T21:29:45.397Z,9.31
2022-10-05T21:32:12.130Z,9.32
2022-10-05T21:34:39.791Z,9.27
2022-10-05T21:37:07.105Z,9.10
2022-10-05T21:39:35.136Z,9.01
2022-10-05T21:42:01.863Z,8.69
2022-10-05T21:44:28.613Z,8.70
2022-10-05T21:46:56.036Z,8.65
2022-10-05T21:49:23.369Z,8.62
2022-10-05T21:51:50.309Z,8.64
2022-10-05T21:54:21.559Z,8.42
2022-10-05T21:56:54.723Z,8.66
2022-10-05T21:59:26.693Z,8.27
2022-10-05T22:01:53.886Z,8.05
2022-10-05T22:04:20.560Z,7.80
2022-10-05T22:06:48.317Z,8.11
2022-10-05T22:09:14.960Z,8.20
2022-10-05T22:11:41.619Z,8.08
2022-10-05T22:14:08.268Z,8.08
2022-10-05T22:16:38.230Z,7.62
2022-10-05T22:19:10.243Z,7.91
2022-10-05T22:21:41.519Z,7.69
2022-10-05T22:24:11.587Z,8.08
2022-10-05T22:26:40.189Z,7.59
2022-10-05T22:29:07.139Z,7.59
2022-10-05T22:31:34.055Z,7.72
2022-10-05T22:34:00.908Z,7.54
2022-10-05T22:36:27.541Z,6.98
2022-10-05T22:38:54.423Z,6.96
2022-10-05T22:41:21.284Z,6.93
2022-10-05T22:43:50.165Z,6.95
2022-10-05T22:46:17.107Z,7.11
2022-10-05T22:48:43.800Z,7.09
2022-10-05T22:51:10.471Z,7.15
2022-10-05T22:53:37.299Z,7.14
2022-10-05T22:56:12.630Z,7.18
2022-10-05T22:58:41.058Z,7.14
2022-10-05T23:01:14.181Z,6.76
2022-10-05T23:03:41.546Z,7.21
2022-10-05T23:06:14.116Z,7.22
2022-10-05T23:08:41.770Z,7.44
2022-10-05T23:11:16.798Z,7.40
2022-10-05T23:13:44.237Z,7.30
2022-10-05T23:16:16.693Z,7.06
2022-10-05T23:18:44.075Z,6.98
2022-10-05T23:21:11.635Z,6.73
2022-10-05T23:23:40.669Z,6.71
2022-10-05T23:26:09.322Z,6.93
2022-10-05T23:28:36.263Z,6.61
2022-10-05T23:31:06.215Z,6.82
2022-10-05T23:33:33.344Z,6.77
2022-10-05T23:36:04.498Z,6.74
2022-10-05T23:38:31.835Z,6.39
2022-10-05T23:40:59.821Z,6.77
2022-10-05T23:43:27.501Z,6.73
2022-10-05T23:45:54.398Z,6.54
2022-10-05T23:48:21.576Z,6.57
2022-10-05T23:50:49.529Z,6.92
2022-10-05T23:53:17.138Z,6.63
2022-10-05T23:55:43.924Z,6.48
2022-10-05T23:58:11.052Z,6.55
